sensor_id;sensor_type;location;lat;lon;timestamp;pressure;altitude;pressure_sealevel;temperature;humidity
18500;BME280;9379;52.134;11.576;2022-10-16T05:56:46;100674.66;;;16.68;99.76
18500;BME280;9379;52.134;11.576;2022-10-16T05:59:13;100703.19;;;17.08;99.62
18500;BME280;9379;52.134;11.576;2022-10-16T06:05:01;100695.78;;;17.10;100.00
18500;BME280;9379;52.134;11.576;2022-10-16T06:07:28;100685.38;;;17.15;99.66
18500;BME280;9379;52.134;11.576;2022-10-16T06:09:55;100665.84;;;17.21;99.24
18500;BME280;9379;52.134;11.576;2022-10-16T06:12:23;100673.06;;;17.20;99.83
18500;BME280;9379;52.134;11.576;2022-10-16T06:14:50;100670.22;;;17.45;98.46
18500;BME280;9379;52.134;11.576;2022-10-16T06:17:16;100677.19;;;17.85;95.93
18500;BME280;9379;52.134;11.576;2022-10-16T06:19:43;100679.47;;;17.73;96.20
18500;BME280;9379;52.134;11.576;2022-10-16T06:22:10;100699.75;;;17.53;98.18
18500;BME280;9379;52.134;11.576;2022-10-16T06:24:37;100687.19;;;17.68;98.04
18500;BME280;9379;52.134;11.576;2022-10-16T06:27:05;100687.28;;;18.06;95.70
18500;BME280;9379;52.134;11.576;2022-10-16T06:29:33;100673.31;;;17.88;96.14
18500;BME280;9379;52.134;11.576;2022-10-16T06:31:59;100689.78;;;18.07;95.87
18500;BME280;9379;52.134;11.576;2022-10-16T06:34:26;100704.59;;;18.03;96.05
18500;BME280;9379;52.134;11.576;2022-10-16T06:36:53;100739.91;;;18.23;95.38
18500;BME280;9379;52.134;11.576;2022-10-16T06:39:20;100734.69;;;17.84;97.89
18500;BME280;9379;52.134;11.576;2022-10-16T06:41:47;100726.47;;;17.77;98.55
18500;BME280;9379;52.134;11.576;2022-10-16T06:44:14;100729.44;;;18.05;97.16
18500;BME280;9379;52.134;11.576;2022-10-16T06:46:42;100724.25;;;18.04;96.49
18500;BME280;9379;52.134;11.576;2022-10-16T06:49:09;100730.16;;;18.22;96.49
18500;BME280;9379;52.134;11.576;2022-10-16T06:51:38;100743.09;;;18.42;95.32
18500;BME280;9379;52.134;11.576;2022-10-16T06:54:19;100751.81;;;18.67;93.76
18500;BME280;9379;52.134;11.576;2022-10-16T06:56:45;100748.94;;;18.45;95.31
18500;BME280;9379;52.134;11.576;2022-10-16T06:59:12;100741.75;;;18.75;93.83
18500;BME280;9379;52.134;11.576;2022-10-16T07:01:39;100739.44;;;18.72;94.01
18500;BME280;9379;52.134;11.576;2022-10-16T07:04:07;100742.88;;;18.66;94.06
18500;BME280;9379;52.134;11.576;2022-10-16T07:06:34;100745.31;;;18.90;92.87
18500;BME280;9379;52.134;11.576;2022-10-16T07:09:03;100750.22;;;18.87;93.49
18500;BME280;9379;52.134;11.576;2022-10-16T07:11:31;100758.94;;;18.36;96.81
18500;BME280;9379;52.134;11.576;2022-10-16T07:13:57;100753.97;;;17.88;99.74
18500;BME280;9379;52.134;11.576;2022-10-16T07:16:26;100752.13;;;17.88;99.62
18500;BME280;9379;52.134;11.576;2022-10-16T07:35:26;100791.72;;;17.94;100.00
18500;BME280;9379;52.134;11.576;2022-10-16T07:37:52;100795.75;;;17.59;100.00
18500;BME280;9379;52.134;11.576;2022-10-16T07:40:19;100809.03;;;17.69;100.00
18500;BME280;9379;52.134;11.576;2022-10-16T07:42:46;100814.19;;;17.78;100.00
18500;BME280;9379;52.134;11.576;2022-10-16T07:45:13;100818.44;;;17.73;100.00
18500;BME280;9379;52.134;11.576;2022-10-16T07:47:39;100824.91;;;17.87;100.00
18500;BME280;9379;52.134;11.576;2022-10-16T07:50:07;100818.59;;;17.71;100.00
18500;BME280;9379;52.134;11.576;2022-10-16T07:52:35;100828.91;;;17.91;100.00
18500;BME280;9379;52.134;11.576;2022-10-16T07:55:02;100842.91;;;17.78;100.00
18500;BME280;9379;52.134;11.576;2022-10-16T07:57:29;100848.31;;;17.70;100.00
18500;BME280;9379;52.134;11.576;2022-10-16T07:59:56;100826.69;;;17.94;100.00
18500;BME280;9379;52.134;11.576;2022-10-16T08:02:22;100846.22;;;17.88;100.00
18500;BME280;9379;52.134;11.576;2022-10-16T08:04:49;100845.00;;;17.99;100.00
18500;BME280;9379;52.134;11.576;2022-10-16T08:07:16;100834.69;;;18.02;99.99
18500;BME280;9379;52.134;11.576;2022-10-16T08:09:48;100836.16;;;17.82;100.00
18500;BME280;9379;52.134;11.576;2022-10-16T08:12:15;100837.69;;;17.85;100.00
18500;BME280;9379;52.134;11.576;2022-10-16T08:14:42;100850.41;;;17.91;100.00
18500;BME280;9379;52.134;11.576;2022-10-16T08:17:09;100850.03;;;17.94;100.00
18500;BME280;9379;52.134;11.576;2022-10-16T08:19:35;100849.81;;;18.03;99.75
18500;BME280;9379;52.134;11.576;2022-10-16T08:22:02;100856.94;;;17.96;99.71
18500;BME280;9379;52.134;11.576;2022-10-16T08:24:29;100874.53;;;18.07;100.00
18500;BME280;9379;52.134;11.576;2022-10-16T08:27:02;100866.22;;;18.17;99.13
18500;BME280;9379;52.134;11.576;2022-10-16T08:29:38;100867.22;;;18.38;98.39
18500;BME280;9379;52.134;11.576;2022-10-16T08:42:55;100871.00;;;18.75;94.58
18500;BME280;9379;52.134;11.576;2022-10-16T08:45:51;100858.03;;;18.79;93.26
18500;BME280;9379;52.134;11.576;2022-10-16T08:48:27;100864.00;;;18.89;92.91
18500;BME280;9379;52.134;11.576;2022-10-16T08:50:56;100871.84;;;19.13;92.70
18500;BME280;9379;52.134;11.576;2022-10-16T08:53:27;100889.03;;;19.27;91.03
18500;BME280;9379;52.134;11.576;2022-10-16T08:55:56;100900.84;;;19.56;90.45
18500;BME280;9379;52.134;11.576;2022-10-16T08:58:28;100902.41;;;19.35;90.34
18500;BME280;9379;52.134;11.576;2022-10-16T09:00:57;100887.41;;;18.88;91.06
18500;BME280;9379;52.134;11.576;2022-10-16T09:03:41;100909.66;;;19.49;89.94
18500;BME280;9379;52.134;11.576;2022-10-16T09:06:28;100912.19;;;19.66;89.92
18500;BME280;9379;52.134;11.576;2022-10-16T09:09:11;100913.38;;;19.34;90.25
18500;BME280;9379;52.134;11.576;2022-10-16T09:11:48;100911.22;;;19.29;89.37
18500;BME280;9379;52.134;11.576;2022-10-16T09:14:29;100924.56;;;19.08;90.31
18500;BME280;9379;52.134;11.576;2022-10-16T09:17:11;100925.91;;;19.12;90.82
18500;BME280;9379;52.134;11.576;2022-10-16T09:19:46;100929.78;;;19.09;90.74
18500;BME280;9379;52.134;11.576;2022-10-16T09:22:17;100919.50;;;19.28;90.00
18500;BME280;9379;52.134;11.576;2022-10-16T09:24:45;100915.13;;;19.12;90.12
18500;BME280;9379;52.134;11.576;2022-10-16T09:30:36;100915.09;;;19.64;87.89
18500;BME280;9379;52.134;11.576;2022-10-16T09:33:04;100920.06;;;19.52;88.75
18500;BME280;9379;52.134;11.576;2022-10-16T09:35:37;100926.69;;;19.35;88.50
18500;BME280;9379;52.134;11.576;2022-10-16T09:38:05;100911.72;;;19.77;87.60
18500;BME280;9379;52.134;11.576;2022-10-16T09:40:38;100915.31;;;19.54;87.38
18500;BME280;9379;52.134;11.576;2022-10-16T09:43:33;100928.81;;;19.54;87.51
18500;BME280;9379;52.134;11.576;2022-10-16T09:46:19;100913.13;;;19.73;87.37
18500;BME280;9379;52.134;11.576;2022-10-16T09:48:50;100938.47;;;20.08;86.75
18500;BME280;9379;52.134;11.576;2022-10-16T09:57:06;100912.63;;;19.99;85.99
18500;BME280;9379;52.134;11.576;2022-10-16T09:59:45;100916.28;;;19.62;86.30
18500;BME280;9379;52.134;11.576;2022-10-16T10:02:15;100914.28;;;20.00;85.57
18500;BME280;9379;52.134;11.576;2022-10-16T10:04:49;100933.97;;;20.30;85.17
18500;BME280;9379;52.134;11.576;2022-10-16T10:07:39;100917.94;;;20.43;83.03
18500;BME280;9379;52.134;11.576;2022-10-16T10:15:34;100957.22;;;20.31;82.37
18500;BME280;9379;52.134;11.576;2022-10-16T10:18:16;100945.56;;;19.79;82.18
18500;BME280;9379;52.134;11.576;2022-10-16T10:20:45;100959.50;;;19.98;82.54
18500;BME280;9379;52.134;11.576;2022-10-16T10:23:21;100951.50;;;19.90;82.47
18500;BME280;9379;52.134;11.576;2022-10-16T10:25:52;100951.59;;;20.11;81.49
18500;BME280;9379;52.134;11.576;2022-10-16T10:28:36;100964.28;;;19.96;82.47
18500;BME280;9379;52.134;11.576;2022-10-16T10:31:13;100967.44;;;19.85;80.57
18500;BME280;9379;52.134;11.576;2022-10-16T10:33:46;100967.44;;;19.85;81.18
18500;BME280;9379;52.134;11.576;2022-10-16T10:36:27;100965.09;;;19.96;80.64
18500;BME280;9379;52.134;11.576;2022-10-16T10:39:07;100965.69;;;20.43;79.42
18500;BME280;9379;52.134;11.576;2022-10-16T10:42:06;100968.47;;;20.49;79.73
18500;BME280;9379;52.134;11.576;2022-10-16T10:47:49;100957.25;;;20.16;79.92
18500;BME280;9379;52.134;11.576;2022-10-16T10:50:25;100963.84;;;20.28;80.07
18500;BME280;9379;52.134;11.576;2022-10-16T10:53:11;100960.88;;;20.23;79.66
18500;BME280;9379;52.134;11.576;2022-10-16T10:55:45;100962.22;;;20.91;77.80
18500;BME280;9379;52.134;11.576;2022-10-16T10:58:33;100948.56;;;20.50;78.23
18500;BME280;9379;52.134;11.576;2022-10-16T11:01:08;100959.91;;;21.31;74.36
18500;BME280;9379;52.134;11.576;2022-10-16T11:03:58;100967.69;;;21.19;73.63
18500;BME280;9379;52.134;11.576;2022-10-16T11:06:35;100962.50;;;20.96;75.04
18500;BME280;9379;52.134;11.576;2022-10-16T11:09:09;100957.13;;;21.52;72.95
18500;BME280;9379;52.134;11.576;2022-10-16T11:11:44;100957.72;;;21.82;71.72
18500;BME280;9379;52.134;11.576;2022-10-16T11:14:16;100968.75;;;21.88;70.06
18500;BME280;9379;52.134;11.576;2022-10-16T11:16:49;100972.63;;;21.72;70.25
18500;BME280;9379;52.134;11.576;2022-10-16T11:19:28;100982.50;;;21.02;71.41
18500;BME280;9379;52.134;11.576;2022-10-16T11:22:04;100957.03;;;20.90;71.69
18500;BME280;9379;52.134;11.576;2022-10-16T11:24:41;100945.56;;;21.31;71.04
18500;BME280;9379;52.134;11.576;2022-10-16T11:27:15;100958.97;;;21.87;70.43
18500;BME280;9379;52.134;11.576;2022-10-16T11:29:57;100942.59;;;22.49;67.75
18500;BME280;9379;52.134;11.576;2022-10-16T11:32:30;100969.88;;;22.48;67.97
18500;BME280;9379;52.134;11.576;2022-10-16T11:35:02;100971.34;;;22.57;67.99
18500;BME280;9379;52.134;11.576;2022-10-16T11:37:36;100969.19;;;22.32;68.01
18500;BME280;9379;52.134;11.576;2022-10-16T11:40:17;100992.22;;;21.74;68.95
18500;BME280;9379;52.134;11.576;2022-10-16T11:42:49;100975.25;;;21.93;69.34
18500;BME280;9379;52.134;11.576;2022-10-16T11:45:26;100987.66;;;21.46;68.97
18500;BME280;9379;52.134;11.576;2022-10-16T11:48:00;100980.50;;;22.01;67.34
18500;BME280;9379;52.134;11.576;2022-10-16T11:50:33;100967.56;;;21.55;67.80
18500;BME280;9379;52.134;11.576;2022-10-16T11:53:08;100981.16;;;22.58;67.10
18500;BME280;9379;52.134;11.576;2022-10-16T11:55:39;100987.94;;;22.27;66.24
18500;BME280;9379;52.134;11.576;2022-10-16T11:58:09;100982.03;;;22.78;65.57
18500;BME280;9379;52.134;11.576;2022-10-16T12:00:44;100976.94;;;22.42;67.23
18500;BME280;9379;52.134;11.576;2022-10-16T12:03:18;100993.38;;;22.34;66.79
18500;BME280;9379;52.134;11.576;2022-10-16T12:05:56;100979.84;;;22.40;65.72
18500;BME280;9379;52.134;11.576;2022-10-16T12:08:27;100993.97;;;22.84;64.95
18500;BME280;9379;52.134;11.576;2022-10-16T12:11:06;100994.56;;;22.18;65.79
18500;BME280;9379;52.134;11.576;2022-10-16T12:13:36;100994.25;;;21.65;66.50
18500;BME280;9379;52.134;11.576;2022-10-16T12:16:16;100991.94;;;22.38;66.23
18500;BME280;9379;52.134;11.576;2022-10-16T12:18:48;100989.88;;;22.47;64.59
18500;BME280;9379;52.134;11.576;2022-10-16T12:21:16;101000.16;;;22.71;64.66
18500;BME280;9379;52.134;11.576;2022-10-16T12:23:50;100991.38;;;22.69;64.86
18500;BME280;9379;52.134;11.576;2022-10-16T12:26:25;101004.97;;;22.82;63.88
18500;BME280;9379;52.134;11.576;2022-10-16T12:31:20;100995.13;;;22.61;63.87
18500;BME280;9379;52.134;11.576;2022-10-16T12:33:58;100997.81;;;22.48;64.14
18500;BME280;9379;52.134;11.576;2022-10-16T12:36:28;100997.97;;;21.99;63.87
18500;BME280;9379;52.134;11.576;2022-10-16T12:38:57;101010.00;;;21.55;65.86
18500;BME280;9379;52.134;11.576;2022-10-16T12:41:26;101022.94;;;21.94;64.89
18500;BME280;9379;52.134;11.576;2022-10-16T12:43:53;101022.72;;;22.30;66.00
18500;BME280;9379;52.134;11.576;2022-10-16T12:46:33;101014.59;;;22.24;65.06
18500;BME280;9379;52.134;11.576;2022-10-16T12:49:29;101024.09;;;22.61;64.09
18500;BME280;9379;52.134;11.576;2022-10-16T12:51:56;101027.72;;;22.88;64.69
18500;BME280;9379;52.134;11.576;2022-10-16T12:54:28;101018.09;;;22.72;65.38
18500;BME280;9379;52.134;11.576;2022-10-16T12:57:27;101023.19;;;22.40;64.50
18500;BME280;9379;52.134;11.576;2022-10-16T13:00:02;101031.53;;;22.39;65.77
18500;BME280;9379;52.134;11.576;2022-10-16T13:05:41;101047.38;;;22.42;65.05
18500;BME280;9379;52.134;11.576;2022-10-16T13:08:23;101033.72;;;22.22;64.69
18500;BME280;9379;52.134;11.576;2022-10-16T13:11:03;101035.28;;;22.38;63.67
18500;BME280;9379;52.134;11.576;2022-10-16T13:13:50;101047.41;;;22.55;62.06
18500;BME280;9379;52.134;11.576;2022-10-16T13:16:30;101038.16;;;22.30;62.90
18500;BME280;9379;52.134;11.576;2022-10-16T13:19:08;101040.94;;;22.08;62.48
18500;BME280;9379;52.134;11.576;2022-10-16T13:21:49;101039.53;;;22.12;60.13
18500;BME280;9379;52.134;11.576;2022-10-16T13:24:26;101035.38;;;22.17;59.88
18500;BME280;9379;52.134;11.576;2022-10-16T13:27:07;101037.03;;;22.59;60.25
18500;BME280;9379;52.134;11.576;2022-10-16T13:29:39;101043.91;;;22.68;60.10
18500;BME280;9379;52.134;11.576;2022-10-16T13:32:09;101039.97;;;22.16;59.83
18500;BME280;9379;52.134;11.576;2022-10-16T13:34:44;101044.81;;;22.27;60.12
18500;BME280;9379;52.134;11.576;2022-10-16T13:37:16;101042.09;;;22.27;59.38
18500;BME280;9379;52.134;11.576;2022-10-16T13:39:44;101048.56;;;22.33;61.07
18500;BME280;9379;52.134;11.576;2022-10-16T13:42:15;101033.13;;;21.92;59.25
18500;BME280;9379;52.134;11.576;2022-10-16T13:44:46;101052.09;;;21.92;60.46
18500;BME280;9379;52.134;11.576;2022-10-16T13:47:18;101057.97;;;22.02;60.75
18500;BME280;9379;52.134;11.576;2022-10-16T13:49:45;101055.84;;;21.98;59.95
18500;BME280;9379;52.134;11.576;2022-10-16T13:52:20;101058.59;;;22.04;60.75
18500;BME280;9379;52.134;11.576;2022-10-16T13:54:50;101068.59;;;22.04;60.41
18500;BME280;9379;52.134;11.576;2022-10-16T13:57:22;101063.41;;;21.74;59.99
18500;BME280;9379;52.134;11.576;2022-10-16T13:59:49;101062.28;;;21.90;60.97
18500;BME280;9379;52.134;11.576;2022-10-16T14:02:20;101066.16;;;22.09;59.36
18500;BME280;9379;52.134;11.576;2022-10-16T14:04:50;101070.38;;;21.90;60.52
18500;BME280;9379;52.134;11.576;2022-10-16T14:07:21;101067.97;;;21.74;59.68
18500;BME280;9379;52.134;11.576;2022-10-16T14:09:50;101052.13;;;21.43;60.49
18500;BME280;9379;52.134;11.576;2022-10-16T14:12:20;101076.16;;;21.80;60.68
18500;BME280;9379;52.134;11.576;2022-10-16T14:14:51;101082.53;;;22.01;60.65
18500;BME280;9379;52.134;11.576;2022-10-16T14:17:22;101081.25;;;22.25;61.06
18500;BME280;9379;52.134;11.576;2022-10-16T14:19:52;101068.88;;;21.81;61.08
18500;BME280;9379;52.134;11.576;2022-10-16T14:22:27;101082.13;;;21.76;61.28
18500;BME280;9379;52.134;11.576;2022-10-16T14:24:56;101081.47;;;22.23;60.79
18500;BME280;9379;52.134;11.576;2022-10-16T14:27:31;101076.81;;;21.61;61.26
18500;BME280;9379;52.134;11.576;2022-10-16T14:30:17;101085.63;;;21.98;60.78
18500;BME280;9379;52.134;11.576;2022-10-16T14:32:56;101094.31;;;22.15;61.15
18500;BME280;9379;52.134;11.576;2022-10-16T14:35:29;101092.03;;;22.18;60.87
18500;BME280;9379;52.134;11.576;2022-10-16T14:37:58;101074.81;;;21.70;61.88
18500;BME280;9379;52.134;11.576;2022-10-16T14:40:27;101092.41;;;21.87;61.17
18500;BME280;9379;52.134;11.576;2022-10-16T14:42:55;101090.75;;;21.58;60.68
18500;BME280;9379;52.134;11.576;2022-10-16T14:45:26;101093.75;;;21.42;60.25
18500;BME280;9379;52.134;11.576;2022-10-16T14:47:56;101092.13;;;21.75;61.28
18500;BME280;9379;52.134;11.576;2022-10-16T14:50:24;101098.56;;;21.74;60.85
18500;BME280;9379;52.134;11.576;2022-10-16T14:52:50;101094.88;;;21.54;60.33
18500;BME280;9379;52.134;11.576;2022-10-16T14:55:18;101092.53;;;21.72;59.47
18500;BME280;9379;52.134;11.576;2022-10-16T14:57:45;101095.72;;;21.54;60.37
18500;BME280;9379;52.134;11.576;2022-10-16T15:00:17;101085.06;;;21.53;61.42
18500;BME280;9379;52.134;11.576;2022-10-16T15:02:44;101092.03;;;21.41;61.14
18500;BME280;9379;52.134;11.576;2022-10-16T15:05:15;101111.13;;;21.54;60.91
18500;BME280;9379;52.134;11.576;2022-10-16T15:07:42;101101.25;;;21.46;60.61
18500;BME280;9379;52.134;11.576;2022-10-16T15:10:09;101114.16;;;21.72;61.47
18500;BME280;9379;52.134;11.576;2022-10-16T15:12:36;101106.38;;;21.63;61.38
18500;BME280;9379;52.134;11.576;2022-10-16T15:15:21;101097.50;;;21.69;61.80
18500;BME280;9379;52.134;11.576;2022-10-16T15:17:52;101114.88;;;21.81;61.48
18500;BME280;9379;52.134;11.576;2022-10-16T15:20:21;101117.66;;;21.66;62.56
18500;BME280;9379;52.134;11.576;2022-10-16T15:22:48;101116.13;;;21.85;61.60
18500;BME280;9379;52.134;11.576;2022-10-16T15:28:07;101133.31;;;21.71;61.42
18500;BME280;9379;52.134;11.576;2022-10-16T15:30:37;101132.53;;;21.77;62.50
18500;BME280;9379;52.134;11.576;2022-10-16T15:33:12;101129.69;;;21.64;62.86
18500;BME280;9379;52.134;11.576;2022-10-16T15:35:39;101142.94;;;21.31;63.35
18500;BME280;9379;52.134;11.576;2022-10-16T15:38:09;101141.75;;;21.40;62.62
18500;BME280;9379;52.134;11.576;2022-10-16T15:40:37;101142.38;;;21.63;62.31
18500;BME280;9379;52.134;11.576;2022-10-16T15:43:04;101144.84;;;21.58;62.70
18500;BME280;9379;52.134;11.576;2022-10-16T15:45:30;101145.81;;;21.72;63.02
18500;BME280;9379;52.134;11.576;2022-10-16T15:47:58;101161.91;;;21.37;64.05
18500;BME280;9379;52.134;11.576;2022-10-16T15:50:25;101154.31;;;21.47;64.37
18500;BME280;9379;52.134;11.576;2022-10-16T15:52:55;101145.06;;;21.20;64.52
18500;BME280;9379;52.134;11.576;2022-10-16T15:55:22;101151.75;;;21.24;63.42
18500;BME280;9379;52.134;11.576;2022-10-16T15:57:49;101153.00;;;21.22;63.68
18500;BME280;9379;52.134;11.576;2022-10-16T16:00:17;101162.56;;;21.24;63.70
18500;BME280;9379;52.134;11.576;2022-10-16T16:02:51;101159.16;;;21.31;64.17
18500;BME280;9379;52.134;11.576;2022-10-16T16:05:20;101167.81;;;21.26;64.21
18500;BME280;9379;52.134;11.576;2022-10-16T16:07:47;101162.84;;;21.30;63.90
18500;BME280;9379;52.134;11.576;2022-10-16T16:10:15;101170.97;;;21.30;64.26
18500;BME280;9379;52.134;11.576;2022-10-16T16:12:42;101151.88;;;21.16;64.03
18500;BME280;9379;52.134;11.576;2022-10-16T16:15:09;101161.94;;;20.86;65.61
18500;BME280;9379;52.134;11.576;2022-10-16T16:17:36;101181.13;;;20.77;66.54
18500;BME280;9379;52.134;11.576;2022-10-16T16:20:04;101176.66;;;20.39;66.86
18500;BME280;9379;52.134;11.576;2022-10-16T16:22:32;101176.53;;;20.18;67.81
18500;BME280;9379;52.134;11.576;2022-10-16T16:24:59;101187.00;;;20.13;68.13
18500;BME280;9379;52.134;11.576;2022-10-16T16:27:25;101185.09;;;19.84;68.01
18500;BME280;9379;52.134;11.576;2022-10-16T16:29:54;101188.88;;;19.75;69.08
18500;BME280;9379;52.134;11.576;2022-10-16T16:32:21;101180.81;;;19.44;69.80
18500;BME280;9379;52.134;11.576;2022-10-16T16:34:48;101208.09;;;19.49;70.70
18500;BME280;9379;52.134;11.576;2022-10-16T16:37:14;101199.63;;;19.52;71.41
18500;BME280;9379;52.134;11.576;2022-10-16T16:39:43;101209.31;;;19.92;69.97
18500;BME280;9379;52.134;11.576;2022-10-16T16:42:09;101204.38;;;19.96;69.71
18500;BME280;9379;52.134;11.576;2022-10-16T16:44:36;101213.53;;;20.09;69.00
18500;BME280;9379;52.134;11.576;2022-10-16T16:47:04;101232.50;;;19.78;70.01
18500;BME280;9379;52.134;11.576;2022-10-16T16:49:31;101218.81;;;19.34;71.57
18500;BME280;9379;52.134;11.576;2022-10-16T16:51:58;101224.31;;;19.41;71.50
18500;BME280;9379;52.134;11.576;2022-10-16T16:54:24;101215.22;;;19.11;72.18
18500;BME280;9379;52.134;11.576;2022-10-16T16:56:52;101219.53;;;19.20;72.26
18500;BME280;9379;52.134;11.576;2022-10-16T16:59:20;101219.47;;;19.36;72.77
18500;BME280;9379;52.134;11.576;2022-10-16T17:01:47;101222.19;;;19.28;72.81
18500;BME280;9379;52.134;11.576;2022-10-16T17:04:14;101220.78;;;19.40;71.94
18500;BME280;9379;52.134;11.576;2022-10-16T17:06:41;101223.81;;;19.06;73.21
18500;BME280;9379;52.134;11.576;2022-10-16T17:09:09;101234.66;;;19.29;71.48
18500;BME280;9379;52.134;11.576;2022-10-16T17:11:38;101243.72;;;18.97;71.94
18500;BME280;9379;52.134;11.576;2022-10-16T17:14:10;101240.56;;;18.85;71.74
18500;BME280;9379;52.134;11.576;2022-10-16T17:16:38;101253.66;;;18.97;71.89
18500;BME280;9379;52.134;11.576;2022-10-16T17:19:11;101234.38;;;18.77;71.83
18500;BME280;9379;52.134;11.576;2022-10-16T17:21:38;101249.03;;;18.50;73.86
18500;BME280;9379;52.134;11.576;2022-10-16T17:24:05;101248.72;;;18.45;74.43
18500;BME280;9379;52.134;11.576;2022-10-16T17:26:33;101251.28;;;18.14;75.63
18500;BME280;9379;52.134;11.576;2022-10-16T17:29:03;101256.84;;;17.96;76.58
18500;BME280;9379;52.134;11.576;2022-10-16T17:31:33;101266.06;;;18.01;76.75
18500;BME280;9379;52.134;11.576;2022-10-16T17:34:01;101257.97;;;17.77;76.05
18500;BME280;9379;52.134;11.576;2022-10-16T17:36:29;101266.91;;;17.86;76.22
18500;BME280;9379;52.134;11.576;2022-10-16T17:39:00;101282.03;;;18.11;76.13
18500;BME280;9379;52.134;11.576;2022-10-16T17:41:29;101282.53;;;18.15;75.09
18500;BME280;9379;52.134;11.576;2022-10-16T17:43:56;101285.56;;;17.87;76.54
18500;BME280;9379;52.134;11.576;2022-10-16T17:46:23;101292.78;;;17.87;75.94
18500;BME280;9379;52.134;11.576;2022-10-16T17:48:52;101297.66;;;17.83;74.91
18500;BME280;9379;52.134;11.576;2022-10-16T17:51:23;101287.91;;;17.74;75.25
18500;BME280;9379;52.134;11.576;2022-10-16T17:53:52;101299.84;;;17.88;75.44
18500;BME280;9379;52.134;11.576;2022-10-16T17:58:53;101301.34;;;17.32;78.05
18500;BME280;9379;52.134;11.576;2022-10-16T18:01:41;101302.38;;;17.39;79.01
18500;BME280;9379;52.134;11.576;2022-10-16T18:04:26;101284.41;;;17.39;78.23
18500;BME280;9379;52.134;11.576;2022-10-16T18:06:55;101290.16;;;17.53;78.40
18500;BME280;9379;52.134;11.576;2022-10-16T18:09:22;101289.53;;;17.67;77.09
18500;BME280;9379;52.134;11.576;2022-10-16T18:11:49;101309.06;;;17.77;77.30
18500;BME280;9379;52.134;11.576;2022-10-16T18:14:20;101320.06;;;17.49;78.27
18500;BME280;9379;52.134;11.576;2022-10-16T18:16:46;101312.47;;;17.37;78.63
18500;BME280;9379;52.134;11.576;2022-10-16T18:19:13;101299.03;;;17.37;78.18
18500;BME280;9379;52.134;11.576;2022-10-16T18:21:42;101300.25;;;17.59;78.51
18500;BME280;9379;52.134;11.576;2022-10-16T18:24:09;101272.22;;;17.61;77.88
18500;BME280;9379;52.134;11.576;2022-10-16T18:26:36;101295.38;;;17.54;77.92
18500;BME280;9379;52.134;11.576;2022-10-16T18:29:03;101284.78;;;17.02;78.99
18500;BME280;9379;52.134;11.576;2022-10-16T18:31:30;101298.56;;;17.07;79.30
18500;BME280;9379;52.134;11.576;2022-10-16T18:33:57;101301.41;;;17.56;77.59
18500;BME280;9379;52.134;11.576;2022-10-16T18:36:31;101294.63;;;17.36;77.13
18500;BME280;9379;52.134;11.576;2022-10-16T18:39:05;101316.91;;;17.62;77.23
18500;BME280;9379;52.134;11.576;2022-10-16T18:41:35;101333.00;;;17.54;78.04
18500;BME280;9379;52.134;11.576;2022-10-16T18:44:03;101342.16;;;17.35;77.79
18500;BME280;9379;52.134;11.576;2022-10-16T18:46:30;101324.63;;;17.23;77.73
18500;BME280;9379;52.134;11.576;2022-10-16T18:49:01;101330.06;;;17.31;77.98
18500;BME280;9379;52.134;11.576;2022-10-16T18:51:32;101325.09;;;17.53;76.66
18500;BME280;9379;52.134;11.576;2022-10-16T18:54:05;101349.75;;;17.48;77.62
18500;BME280;9379;52.134;11.576;2022-10-16T19:21:17;101362.03;;;17.85;75.72
18500;BME280;9379;52.134;11.576;2022-10-16T19:23:44;101333.72;;;17.64;76.53
18500;BME280;9379;52.134;11.576;2022-10-16T19:26:13;101351.44;;;17.41;77.52
18500;BME280;9379;52.134;11.576;2022-10-16T19:28:42;101373.94;;;17.48;78.05
18500;BME280;9379;52.134;11.576;2022-10-16T19:31:12;101374.81;;;17.48;78.27
18500;BME280;9379;52.134;11.576;2022-10-16T19:33:40;101375.22;;;17.62;78.53
18500;BME280;9379;52.134;11.576;2022-10-16T19:36:08;101378.84;;;17.53;78.15
18500;BME280;9379;52.134;11.576;2022-10-16T19:38:36;101377.84;;;17.54;78.49
18500;BME280;9379;52.134;11.576;2022-10-16T19:41:04;101381.34;;;17.46;78.41
18500;BME280;9379;52.134;11.576;2022-10-16T19:43:31;101387.25;;;17.58;78.41
18500;BME280;9379;52.134;11.576;2022-10-16T19:46:02;101386.25;;;17.50;78.38
18500;BME280;9379;52.134;11.576;2022-10-16T19:48:29;101390.41;;;17.45;79.20
18500;BME280;9379;52.134;11.576;2022-10-16T19:50:56;101381.44;;;17.36;78.91
18500;BME280;9379;52.134;11.576;2022-10-16T19:53:24;101382.72;;;17.24;79.37
18500;BME280;9379;52.134;11.576;2022-10-16T19:55:54;101376.78;;;16.86;79.99
18500;BME280;9379;52.134;11.576;2022-10-16T19:58:22;101378.81;;;16.84;80.29
18500;BME280;9379;52.134;11.576;2022-10-16T20:00:49;101381.66;;;17.09;79.83
18500;BME280;9379;52.134;11.576;2022-10-16T20:03:16;101381.25;;;17.64;77.67
18500;BME280;9379;52.134;11.576;2022-10-16T20:05:49;101386.06;;;17.94;76.88
18500;BME280;9379;52.134;11.576;2022-10-16T20:08:16;101376.50;;;17.58;77.25
18500;BME280;9379;52.134;11.576;2022-10-16T20:10:47;101392.19;;;17.36;78.18
18500;BME280;9379;52.134;11.576;2022-10-16T20:13:16;101387.84;;;17.35;78.19
18500;BME280;9379;52.134;11.576;2022-10-16T20:15:44;101396.59;;;17.37;78.66
18500;BME280;9379;52.134;11.576;2022-10-16T20:18:11;101406.28;;;17.30;78.90
18500;BME280;9379;52.134;11.576;2022-10-16T20:20:43;101389.03;;;17.07;79.24
18500;BME280;9379;52.134;11.576;2022-10-16T20:23:16;101429.84;;;17.70;77.53
18500;BME280;9379;52.134;11.576;2022-10-16T20:25:51;101392.47;;;17.85;75.96
18500;BME280;9379;52.134;11.576;2022-10-16T20:28:21;101395.72;;;17.63;76.65
18500;BME280;9379;52.134;11.576;2022-10-16T20:30:57;101418.50;;;17.59;77.20